Mayville, NY (14757)

12:29 PM EDT on May 03, 2015 (GMT -0400)
Sea Lion Channel Lake Chautauqua (MADIS) | | Change Station
CLOSE
Current Station
Personal Weather Station
Location: Mayville, NY
Elevation: 1310 ft
Nearby Weather Stations

Elev 1310 ft 42.26 °N, 79.48 °W | Updated 7 minutes ago

Clear
Clear
71.5 °F
Feels Like 77 °F
N
1.0
Wind Variable Wind from WNW
Gusts 9.0 mph

Today
High -- | Low -- °F
--% Chance of Precip.
Yesterday
High -- | Low -- °F
Precip. -- in
6:11 AM 8:19 PM
Full, 100% visible
Pressure 30.13 in
Visibility 10.0 miles
Clouds Few 7000 ft
Heat Index 77 °F
Dew Point 46 °F
Humidity 40%
Rainfall 0.00 in
Snow Depth Not available.
UV 9 out of 12
Pollen 11.30 out of 12
Air Quality Not available.
Flu Activity Widespread
METAR KJHW 031615Z 27006KT 220V300 10SM FEW070 20/03 A3013 RMK AO1

More Conditions Fewer Conditions

Pressure 30.13 in
Visibility 10.0 miles
Clouds Few 7000 ft
Heat Index 77 °F
Dew Point 46 °F
Humidity 40%
Rainfall 0.00 in
Snow Depth Not available.
UV 9 out of 12
Pollen 11.30 out of 12
Air Quality Not available.
Flu Activity Widespread
METAR KJHW 031615Z 27006KT 220V300 10SM FEW070 20/03 A3013 RMK AO1

More Conditions Fewer Conditions

Nepal has a long way to go to dig out and rebuild from a devastating earthquake. We have teamed up with several charities and organizations to make contributing to the relief effort as easy as possible.
How you can help: Portlight Strategies | Red Cross

10-Day Weather Forecast

Almanac

Astronomy

May. 03, 2015 Rise Set
Actual Time
Civil Twilight
Nautical Twilight
Astronomical Twilight
Moon
Length of Visible Light
Length of Day
Tomorrow will be .
, % of the Moon is Illuminated

Today's Extremes

State Highs State Lows

Community

WunderPhotos

Upload Photos

1,818,264 photos uploaded!

WunderBlogs® & News

Nearby

Air Quality

  Air Quality AQ Index Pollutant
Not available.

Snow Depth

Station Depth Elevation

Earthquake Activity

City Distance Mag. Time & Date
Minimum magnitude displayed is 2.5.

Coastal Water Temperatures

Place Temperature

Stations

Nearby Weather Stations

Station Location Temp. Windchill Dew Point Humidity Wind Precip. Elev Updated Type